createdAt,value
2022-10-07T00:00:56.449Z,79.03
2022-10-07T00:03:26.241Z,79.77
2022-10-07T00:06:06.091Z,80.06
2022-10-07T00:08:38.492Z,80.96
2022-10-07T00:11:08.239Z,80.39
2022-10-07T00:13:37.171Z,80.50
2022-10-07T00:16:07.039Z,79.59
2022-10-07T00:18:36.174Z,79.86
2022-10-07T00:21:09.784Z,79.79
2022-10-07T00:23:38.156Z,80.68
2022-10-07T00:26:08.798Z,80.01
2022-10-07T00:28:36.744Z,80.27
2022-10-07T00:31:08.217Z,80.59
2022-10-07T00:33:38.094Z,80.46
2022-10-07T00:36:17.182Z,81.30
2022-10-07T00:38:45.879Z,81.64
2022-10-07T00:41:23.865Z,81.82
2022-10-07T00:43:52.056Z,82.04
2022-10-07T00:46:22.788Z,81.46
2022-10-07T00:48:50.728Z,82.07
2022-10-07T00:51:18.646Z,81.67
2022-10-07T00:53:49.132Z,81.31
2022-10-07T00:56:17.047Z,81.17
2022-10-07T00:58:46.436Z,81.02
2022-10-07T01:01:14.355Z,81.09
2022-10-07T01:03:42.132Z,81.72
2022-10-07T01:06:10.105Z,80.30
2022-10-07T01:08:39.413Z,79.93
2022-10-07T01:11:21.684Z,80.52
2022-10-07T01:14:04.771Z,80.12
2022-10-07T01:17:10.826Z,80.81
2022-10-07T01:20:10.542Z,81.31
2022-10-07T01:22:38.038Z,80.68
2022-10-07T01:25:28.928Z,80.09
2022-10-07T01:28:01.215Z,80.80
2022-10-07T01:30:31.750Z,80.73
2022-10-07T01:33:04.290Z,81.54
2022-10-07T01:35:34.236Z,81.37
2022-10-07T01:38:05.578Z,81.35
2022-10-07T01:40:37.465Z,81.99
2022-10-07T01:43:05.408Z,82.20
2022-10-07T01:45:34.653Z,82.07
2022-10-07T01:48:02.484Z,82.69
2022-10-07T01:50:31.497Z,83.90
2022-10-07T01:53:11.818Z,83.50
2022-10-07T01:55:57.012Z,83.69
2022-10-07T01:58:32.252Z,83.50
2022-10-07T02:01:05.128Z,84.04
2022-10-07T02:04:07.594Z,83.56
2022-10-07T02:07:01.654Z,83.30
2022-10-07T02:09:50.922Z,83.13
2022-10-07T02:12:25.800Z,83.44
2022-10-07T02:15:05.026Z,83.04
2022-10-07T02:17:37.060Z,82.95
2022-10-07T02:20:06.059Z,83.81
2022-10-07T02:22:35.626Z,82.91
2022-10-07T02:25:03.376Z,82.73
2022-10-07T02:27:35.908Z,82.17
2022-10-07T02:30:12.609Z,82.16
2022-10-07T02:32:47.859Z,82.00
2022-10-07T02:35:33.553Z,82.40
2022-10-07T02:38:03.996Z,82.12
2022-10-07T02:40:36.502Z,81.70
2022-10-07T02:43:11.371Z,81.82
2022-10-07T02:45:42.636Z,82.11
2022-10-07T02:48:24.465Z,82.09
2022-10-07T02:50:53.130Z,82.26
2022-10-07T02:53:21.689Z,82.55
2022-10-07T02:55:50.725Z,82.70
2022-10-07T02:58:20.862Z,83.49
2022-10-07T03:00:51.858Z,83.31
2022-10-07T03:03:20.458Z,82.71
2022-10-07T03:05:48.964Z,83.18
2022-10-07T03:08:16.664Z,83.35
2022-10-07T03:10:44.325Z,83.27
2022-10-07T03:13:12.735Z,83.71
2022-10-07T03:15:42.510Z,83.46
2022-10-07T03:18:11.689Z,83.49
2022-10-07T03:20:39.515Z,84.16
2022-10-07T03:23:07.163Z,83.68
2022-10-07T03:25:35.633Z,83.70
2022-10-07T03:28:03.919Z,83.82
2022-10-07T03:30:31.830Z,83.79
2022-10-07T03:32:59.577Z,83.51
2022-10-07T03:35:27.671Z,83.20
2022-10-07T03:37:55.495Z,83.90
2022-10-07T03:40:23.103Z,84.13
2022-10-07T03:42:51.495Z,84.49
2022-10-07T03:45:19.110Z,85.03
2022-10-07T03:47:47.201Z,85.13
2022-10-07T03:50:16.554Z,85.31
2022-10-07T03:52:44.071Z,85.86
2022-10-07T03:55:11.729Z,85.51
2022-10-07T03:57:39.744Z,85.65
2022-10-07T04:00:07.828Z,85.46
2022-10-07T04:02:42.459Z,85.77
2022-10-07T04:05:11.133Z,85.88
2022-10-07T04:07:39.053Z,85.61
2022-10-07T04:10:06.983Z,85.37
2022-10-07T04:12:34.972Z,85.04
2022-10-07T04:15:02.956Z,85.44
2022-10-07T04:17:30.823Z,85.26
2022-10-07T04:19:59.165Z,85.30
2022-10-07T04:22:27.338Z,85.46
2022-10-07T04:24:54.888Z,85.29
2022-10-07T04:27:46.781Z,85.42
2022-10-07T04:30:11.525Z,84.53
2022-10-07T04:32:39.434Z,84.95
2022-10-07T04:35:07.850Z,84.91
2022-10-07T04:37:35.612Z,84.60
2022-10-07T04:40:04.002Z,85.06
2022-10-07T04:42:32.516Z,85.51
2022-10-07T04:45:00.359Z,85.37
2022-10-07T04:47:28.642Z,84.26
2022-10-07T04:49:56.621Z,84.32
2022-10-07T04:52:25.271Z,84.05
2022-10-07T04:54:53.957Z,84.79
2022-10-07T04:57:23.387Z,85.60
2022-10-07T04:59:52.658Z,85.97
2022-10-07T05:02:21.446Z,85.65
2022-10-07T05:04:49.133Z,85.74
2022-10-07T05:07:16.716Z,85.98
2022-10-07T05:09:44.730Z,86.61
2022-10-07T05:12:13.771Z,86.50
2022-10-07T05:14:41.360Z,86.85
2022-10-07T05:17:10.827Z,86.46
2022-10-07T05:19:38.600Z,86.64
2022-10-07T05:22:06.853Z,87.03
2022-10-07T05:24:34.790Z,86.52
2022-10-07T05:27:02.894Z,86.02
2022-10-07T05:29:30.487Z,86.92
2022-10-07T05:32:02.227Z,87.06
2022-10-07T05:34:33.144Z,86.66
2022-10-07T05:37:01.099Z,86.58
2022-10-07T05:39:29.203Z,86.31
2022-10-07T05:41:57.199Z,86.05
2022-10-07T05:44:25.354Z,86.67
2022-10-07T05:46:53.271Z,87.63
2022-10-07T05:49:21.023Z,87.81
2022-10-07T05:51:48.997Z,87.77
2022-10-07T05:54:17.767Z,87.45
2022-10-07T05:56:45.556Z,87.21
2022-10-07T05:59:17.047Z,86.82
2022-10-07T06:01:45.117Z,86.94
2022-10-07T06:04:13.474Z,86.56
2022-10-07T06:06:41.588Z,85.75
2022-10-07T06:09:10.894Z,85.23
2022-10-07T06:11:38.938Z,85.08
2022-10-07T06:14:07.453Z,85.61
2022-10-07T06:16:35.160Z,85.75
2022-10-07T06:19:03.183Z,85.74
2022-10-07T06:21:31.527Z,85.01
2022-10-07T06:23:59.360Z,84.58
2022-10-07T06:26:28.770Z,84.43
2022-10-07T06:28:56.576Z,84.15
2022-10-07T06:31:24.304Z,84.32
2022-10-07T06:33:53.027Z,83.89
2022-10-07T06:36:21.621Z,83.41
2022-10-07T06:38:53.842Z,83.66
2022-10-07T06:41:24.729Z,83.50
2022-10-07T06:44:00.295Z,82.73
2022-10-07T06:46:28.432Z,82.83
2022-10-07T06:48:56.397Z,82.25
2022-10-07T06:51:24.390Z,82.28
2022-10-07T06:53:54.696Z,82.33
2022-10-07T06:56:22.483Z,81.86
2022-10-07T06:58:50.329Z,81.04
2022-10-07T07:01:19.339Z,80.62
2022-10-07T07:03:47.081Z,80.55
2022-10-07T07:06:15.962Z,80.17
2022-10-07T07:08:44.057Z,79.67
2022-10-07T07:11:13.524Z,79.67
2022-10-07T07:13:43.910Z,79.73
2022-10-07T07:16:14.248Z,78.96
2022-10-07T07:18:42.022Z,78.53
2022-10-07T07:21:09.630Z,78.20
2022-10-07T07:23:37.530Z,77.46
2022-10-07T07:26:05.234Z,78.53
2022-10-07T07:28:33.082Z,77.54
2022-10-07T07:31:01.151Z,75.05
2022-10-07T07:33:29.271Z,75.93
2022-10-07T07:35:57.035Z,74.51
2022-10-07T07:38:25.652Z,73.61
2022-10-07T07:40:54.173Z,72.61
2022-10-07T07:43:21.802Z,71.85
2022-10-07T07:45:49.868Z,71.93
2022-10-07T07:48:17.772Z,70.41
2022-10-07T07:50:45.512Z,71.52
2022-10-07T07:53:13.769Z,69.74
2022-10-07T07:55:57.150Z,70.37
2022-10-07T07:58:26.016Z,69.99
2022-10-07T08:01:00.504Z,68.89
2022-10-07T08:03:29.536Z,68.96
2022-10-07T08:06:00.776Z,68.50
2022-10-07T08:08:29.783Z,68.87
2022-10-07T08:10:58.252Z,67.47
2022-10-07T08:13:25.891Z,67.24
2022-10-07T08:15:56.714Z,66.17
2022-10-07T08:18:24.502Z,67.28
2022-10-07T08:21:03.648Z,66.93
2022-10-07T08:23:32.209Z,65.96
2022-10-07T08:26:00.741Z,65.66
2022-10-07T08:28:28.539Z,65.00
2022-10-07T08:31:02.840Z,65.03
2022-10-07T08:33:35.320Z,65.02
2022-10-07T08:36:05.698Z,65.08
2022-10-07T08:38:38.334Z,65.25
2022-10-07T08:41:09.080Z,63.52
2022-10-07T08:43:39.744Z,64.91
2022-10-07T08:46:12.536Z,64.59
2022-10-07T08:48:42.418Z,63.70
2022-10-07T08:51:20.509Z,63.54
2022-10-07T08:53:55.419Z,63.59
2022-10-07T08:56:24.252Z,63.38
2022-10-07T08:59:07.147Z,62.43
2022-10-07T09:01:44.338Z,62.36
2022-10-07T09:04:20.875Z,62.29
2022-10-07T09:06:52.362Z,62.49
2022-10-07T09:09:23.987Z,63.84
2022-10-07T09:11:52.530Z,62.46
2022-10-07T09:14:34.625Z,61.55
2022-10-07T09:17:08.814Z,61.58
2022-10-07T09:19:44.651Z,60.68
2022-10-07T09:22:17.380Z,59.77
2022-10-07T09:24:47.058Z,60.04
2022-10-07T09:27:17.516Z,59.34
2022-10-07T09:29:45.305Z,58.68
2022-10-07T09:32:18.103Z,60.32
2022-10-07T09:34:46.434Z,58.27
2022-10-07T09:37:20.294Z,58.82
2022-10-07T09:39:50.357Z,58.87
2022-10-07T09:42:23.731Z,57.28
2022-10-07T09:44:53.955Z,58.25
2022-10-07T09:47:27.383Z,58.35
2022-10-07T09:49:58.110Z,57.88
2022-10-07T09:52:28.042Z,57.97
2022-10-07T09:55:17.526Z,58.06
2022-10-07T09:57:59.637Z,57.84
2022-10-07T10:00:28.430Z,57.24
2022-10-07T10:03:05.418Z,56.22
2022-10-07T10:05:33.096Z,55.09
2022-10-07T10:08:21.877Z,54.89
2022-10-07T10:10:57.937Z,54.54
2022-10-07T10:13:33.227Z,54.57
2022-10-07T10:16:02.980Z,55.54
2022-10-07T10:18:32.439Z,53.99
2022-10-07T10:21:34.226Z,53.76
2022-10-07T10:24:07.298Z,54.03
2022-10-07T10:27:09.663Z,53.42
2022-10-07T10:30:03.433Z,52.63
2022-10-07T10:33:00.238Z,52.80
2022-10-07T10:35:29.408Z,52.45
2022-10-07T10:38:35.518Z,52.32
2022-10-07T10:41:10.580Z,52.73
2022-10-07T10:43:40.844Z,52.30
2022-10-07T10:46:17.468Z,50.46
2022-10-07T10:49:10.216Z,51.61
2022-10-07T10:51:40.744Z,51.69
2022-10-07T10:54:38.822Z,51.17
2022-10-07T10:57:17.239Z,50.75
2022-10-07T11:00:13.258Z,51.66
2022-10-07T11:03:12.932Z,50.38
2022-10-07T11:05:40.640Z,50.78
2022-10-07T11:08:11.393Z,51.24
2022-10-07T11:10:47.391Z,49.49
2022-10-07T11:13:30.057Z,51.41
2022-10-07T11:16:20.412Z,49.83
2022-10-07T11:19:24.896Z,50.81
2022-10-07T11:21:53.728Z,50.97
2022-10-07T11:24:27.777Z,50.26
2022-10-07T11:27:06.709Z,49.25
2022-10-07T11:30:00.840Z,49.23
2022-10-07T11:32:34.181Z,49.94
2022-10-07T11:35:14.404Z,49.37
2022-10-07T11:37:47.934Z,48.54
2022-10-07T11:40:16.195Z,50.20
2022-10-07T11:42:48.110Z,47.86
2022-10-07T11:45:31.440Z,48.76
2022-10-07T11:48:12.781Z,48.07
2022-10-07T11:50:47.687Z,45.81
2022-10-07T11:53:20.586Z,48.12
2022-10-07T11:56:14.414Z,48.52
2022-10-07T11:58:42.814Z,46.89
2022-10-07T12:01:25.682Z,47.64
2022-10-07T12:04:14.895Z,46.61
2022-10-07T12:07:19.789Z,46.67
2022-10-07T12:10:00.239Z,46.62
2022-10-07T12:12:43.452Z,46.14
2022-10-07T12:15:33.048Z,46.12
2022-10-07T12:18:04.483Z,46.77
2022-10-07T12:20:50.801Z,46.90
2022-10-07T12:23:18.301Z,45.41
2022-10-07T12:25:46.192Z,46.67
2022-10-07T12:28:35.364Z,46.15
2022-10-07T12:31:23.274Z,45.81
2022-10-07T12:34:06.237Z,45.95
2022-10-07T12:36:34.322Z,46.59
2022-10-07T12:39:02.379Z,45.94
2022-10-07T12:41:33.624Z,46.02
2022-10-07T12:44:19.899Z,46.80
2022-10-07T12:46:51.730Z,47.67
2022-10-07T12:49:22.512Z,48.00
2022-10-07T12:51:52.656Z,48.40
2022-10-07T12:54:41.364Z,48.58
2022-10-07T12:57:13.903Z,46.70
2022-10-07T12:59:49.507Z,46.64
2022-10-07T13:02:32.606Z,47.51
2022-10-07T13:05:09.741Z,47.53
2022-10-07T13:08:15.015Z,48.12
2022-10-07T13:11:01.957Z,48.71
2022-10-07T13:13:51.258Z,48.10
2022-10-07T13:16:47.196Z,47.85
2022-10-07T13:19:19.614Z,48.94
2022-10-07T13:22:13.643Z,49.19
2022-10-07T13:24:55.397Z,49.98
2022-10-07T13:27:28.915Z,50.60
2022-10-07T13:29:59.318Z,51.30
2022-10-07T13:32:33.092Z,50.99
2022-10-07T13:35:23.468Z,50.23
2022-10-07T13:37:54.390Z,50.37
2022-10-07T13:40:24.710Z,50.08
2022-10-07T13:43:13.687Z,50.21
2022-10-07T13:45:42.916Z,50.38
2022-10-07T13:48:19.201Z,50.47
2022-10-07T13:50:47.119Z,51.34
2022-10-07T13:53:21.335Z,48.87
2022-10-07T13:55:49.037Z,50.83
2022-10-07T13:58:17.956Z,50.81
2022-10-07T14:00:47.469Z,51.76
2022-10-07T14:03:16.909Z,51.97
2022-10-07T14:05:52.629Z,51.94
2022-10-07T14:08:25.598Z,51.23
2022-10-07T14:11:09.963Z,52.01
2022-10-07T14:13:38.007Z,51.85
2022-10-07T14:16:05.786Z,52.37
2022-10-07T14:18:33.450Z,52.36
2022-10-07T14:21:11.673Z,53.04
2022-10-07T14:23:39.318Z,52.39
2022-10-07T14:26:08.232Z,52.65
2022-10-07T14:28:39.907Z,52.82
2022-10-07T14:31:07.793Z,52.18
2022-10-07T14:33:44.561Z,52.36
2022-10-07T14:36:20.113Z,52.75
2022-10-07T14:38:49.675Z,52.02
2022-10-07T14:41:20.711Z,52.80
2022-10-07T14:43:49.772Z,52.89
2022-10-07T14:46:23.381Z,53.17
2022-10-07T14:48:54.321Z,52.30
2022-10-07T14:51:25.167Z,52.34
2022-10-07T14:54:01.039Z,52.69
2022-10-07T14:56:33.674Z,52.65
2022-10-07T14:59:01.487Z,53.03
2022-10-07T15:01:29.418Z,51.90
2022-10-07T15:04:02.709Z,53.13
2022-10-07T15:06:30.783Z,54.02
2022-10-07T15:08:58.399Z,52.89
2022-10-07T15:11:26.061Z,53.47
2022-10-07T15:13:54.041Z,54.57
2022-10-07T15:16:23.881Z,54.68
2022-10-07T15:18:53.046Z,56.31
2022-10-07T15:21:22.020Z,55.67
2022-10-07T15:23:51.169Z,56.48
2022-10-07T15:26:19.330Z,56.02
2022-10-07T15:28:52.877Z,56.59
2022-10-07T15:31:21.850Z,57.23
2022-10-07T15:33:49.796Z,56.27
2022-10-07T15:36:17.385Z,57.84
2022-10-07T15:38:45.074Z,58.13
2022-10-07T15:41:29.300Z,58.58
2022-10-07T15:43:58.369Z,59.75
2022-10-07T15:46:26.680Z,59.84
2022-10-07T15:48:55.798Z,60.24
2022-10-07T15:51:24.202Z,60.56
2022-10-07T15:53:52.932Z,61.31
2022-10-07T15:56:20.981Z,60.76
2022-10-07T15:58:48.762Z,62.13
2022-10-07T16:01:16.717Z,62.27
2022-10-07T16:03:46.680Z,62.39
2022-10-07T16:06:20.120Z,63.12
2022-10-07T16:08:49.508Z,63.74
2022-10-07T16:11:17.304Z,64.05
2022-10-07T16:13:46.055Z,64.90
2022-10-07T16:16:19.326Z,65.19
2022-10-07T16:18:48.879Z,65.96
2022-10-07T16:21:18.007Z,66.19
2022-10-07T16:23:46.504Z,67.10
2022-10-07T16:26:23.252Z,67.25
2022-10-07T16:28:52.193Z,68.03
2022-10-07T16:31:19.857Z,68.10
2022-10-07T16:33:52.231Z,68.73
2022-10-07T16:36:22.921Z,68.33
2022-10-07T16:38:51.710Z,68.85
2022-10-07T16:41:21.352Z,69.44
2022-10-07T16:43:49.200Z,70.08
2022-10-07T16:46:19.280Z,69.74
2022-10-07T16:48:48.773Z,69.95
2022-10-07T16:51:17.966Z,70.07
2022-10-07T16:53:47.356Z,70.09
2022-10-07T16:56:19.172Z,69.82
2022-10-07T16:58:47.548Z,70.74
2022-10-07T17:01:16.943Z,71.50
2022-10-07T17:03:45.392Z,71.18
2022-10-07T17:06:14.871Z,71.66
2022-10-07T17:08:46.271Z,71.97
2022-10-07T17:11:18.935Z,72.39
2022-10-07T17:13:46.609Z,72.72
2022-10-07T17:16:14.591Z,72.28
2022-10-07T17:18:42.593Z,72.89
2022-10-07T17:21:10.264Z,73.11
2022-10-07T17:23:37.879Z,73.02
2022-10-07T17:26:06.353Z,73.33
2022-10-07T17:28:35.128Z,72.55
2022-10-07T17:31:07.729Z,72.78
2022-10-07T17:33:35.824Z,73.28
2022-10-07T17:36:04.780Z,73.25
2022-10-07T17:38:43.699Z,73.57
2022-10-07T17:41:26.403Z,73.58
2022-10-07T17:43:55.936Z,74.08
2022-10-07T17:46:26.110Z,74.34
2022-10-07T17:48:55.508Z,74.06
2022-10-07T17:51:24.877Z,74.24
2022-10-07T17:53:52.862Z,74.62
2022-10-07T17:56:20.549Z,74.50
2022-10-07T17:58:49.533Z,74.34
2022-10-07T18:01:24.288Z,74.83
2022-10-07T18:03:55.039Z,75.87
2022-10-07T18:06:22.891Z,75.44
2022-10-07T18:08:50.804Z,75.58
2022-10-07T18:11:18.696Z,75.24
2022-10-07T18:13:46.417Z,75.76
2022-10-07T18:16:15.028Z,75.72
2022-10-07T18:18:43.737Z,75.72
2022-10-07T18:21:12.020Z,76.08
2022-10-07T18:23:40.139Z,75.99
2022-10-07T18:26:10.855Z,76.13
2022-10-07T18:28:38.597Z,76.56
2022-10-07T18:31:11.589Z,75.78
2022-10-07T18:33:40.337Z,75.66
2022-10-07T18:36:10.476Z,76.39
2022-10-07T18:38:40.283Z,76.72
2022-10-07T18:41:10.795Z,76.23
2022-10-07T18:43:38.463Z,75.99
2022-10-07T18:46:17.318Z,76.35
2022-10-07T18:48:48.088Z,75.99
2022-10-07T18:51:17.587Z,75.23
2022-10-07T18:53:46.500Z,75.06
2022-10-07T18:56:19.956Z,75.42
2022-10-07T18:58:49.963Z,75.71
2022-10-07T19:01:22.934Z,75.49
2022-10-07T19:03:58.559Z,76.01
2022-10-07T19:06:26.539Z,76.43
2022-10-07T19:08:59.507Z,76.98
2022-10-07T19:11:27.528Z,76.57
2022-10-07T19:13:57.079Z,76.79
2022-10-07T19:16:24.670Z,76.98
2022-10-07T19:18:54.333Z,77.47
2022-10-07T19:21:23.191Z,76.96
2022-10-07T19:23:53.014Z,77.46
2022-10-07T19:26:23.649Z,77.21
2022-10-07T19:28:53.542Z,77.44
2022-10-07T19:31:23.599Z,77.79
2022-10-07T19:33:55.907Z,78.31
2022-10-07T19:36:24.187Z,77.87
2022-10-07T19:38:52.865Z,77.26
2022-10-07T19:41:23.699Z,77.67
2022-10-07T19:43:51.979Z,77.31
2022-10-07T19:46:22.347Z,77.79
2022-10-07T19:48:50.134Z,77.97
2022-10-07T19:51:19.482Z,77.80
2022-10-07T19:53:47.798Z,78.16
2022-10-07T19:56:24.009Z,78.52
2022-10-07T19:59:00.091Z,78.90
2022-10-07T20:01:31.776Z,78.61
2022-10-07T20:04:01.728Z,78.72
2022-10-07T20:06:29.836Z,79.13
2022-10-07T20:08:57.747Z,79.05
2022-10-07T20:11:26.134Z,79.12
2022-10-07T20:13:53.741Z,78.99
2022-10-07T20:16:24.384Z,78.64
2022-10-07T20:18:57.853Z,78.83
2022-10-07T20:21:25.423Z,79.54
2022-10-07T20:23:54.350Z,80.00
2022-10-07T20:26:26.756Z,79.49
2022-10-07T20:28:56.940Z,79.79
2022-10-07T20:31:28.042Z,79.94
2022-10-07T20:33:57.262Z,79.60
2022-10-07T20:36:29.633Z,80.21
2022-10-07T20:39:19.442Z,80.25
2022-10-07T20:41:48.977Z,80.29
2022-10-07T20:44:17.379Z,80.49
2022-10-07T20:46:45.002Z,80.75
2022-10-07T20:49:13.376Z,80.90
2022-10-07T20:51:41.339Z,81.42
2022-10-07T20:54:08.992Z,80.97
2022-10-07T20:56:36.668Z,81.03
2022-10-07T20:59:04.640Z,81.34
2022-10-07T21:01:32.404Z,81.67
2022-10-07T21:04:00.086Z,81.63
2022-10-07T21:06:27.978Z,81.73
2022-10-07T21:08:55.557Z,81.65
2022-10-07T21:11:23.996Z,82.08
2022-10-07T21:13:51.964Z,82.09
2022-10-07T21:16:19.629Z,81.85
2022-10-07T21:18:47.695Z,81.94
2022-10-07T21:21:16.018Z,81.64
2022-10-07T21:23:44.369Z,81.91
2022-10-07T21:26:12.606Z,82.17
2022-10-07T21:28:40.514Z,81.79
2022-10-07T21:31:11.145Z,81.74
2022-10-07T21:33:39.303Z,81.70
2022-10-07T21:36:10.467Z,82.11
2022-10-07T21:38:38.544Z,82.34
2022-10-07T21:41:18.628Z,82.18
2022-10-07T21:43:55.032Z,82.34
2022-10-07T21:46:23.704Z,82.12
2022-10-07T21:48:52.000Z,82.49
2022-10-07T21:51:19.668Z,82.46
2022-10-07T21:53:51.260Z,82.89
2022-10-07T21:56:19.934Z,83.00
2022-10-07T21:58:47.919Z,82.86
2022-10-07T22:01:16.910Z,83.42
2022-10-07T22:03:45.382Z,83.03
2022-10-07T22:06:17.096Z,82.86
2022-10-07T22:08:46.094Z,83.18
2022-10-07T22:11:19.369Z,83.07
2022-10-07T22:13:49.431Z,83.05
2022-10-07T22:16:18.694Z,82.66
2022-10-07T22:18:48.709Z,82.46
2022-10-07T22:21:21.158Z,82.42
2022-10-07T22:23:59.677Z,82.76
2022-10-07T22:26:30.394Z,82.81
2022-10-07T22:28:58.351Z,81.53
2022-10-07T22:31:26.550Z,81.32
2022-10-07T22:33:59.063Z,81.66
2022-10-07T22:36:26.963Z,81.44
2022-10-07T22:38:55.953Z,81.66
2022-10-07T22:41:23.915Z,82.04
2022-10-07T22:43:52.581Z,82.25
2022-10-07T22:46:23.270Z,82.44
2022-10-07T22:48:51.188Z,82.25
2022-10-07T22:51:18.790Z,83.20
2022-10-07T22:53:51.779Z,82.82
2022-10-07T22:56:19.590Z,82.64
2022-10-07T22:58:53.160Z,82.79
2022-10-07T23:01:21.175Z,83.32
2022-10-07T23:03:49.330Z,83.80
2022-10-07T23:06:18.505Z,83.97
2022-10-07T23:08:47.555Z,83.10
2022-10-07T23:11:19.131Z,82.99
2022-10-07T23:13:46.766Z,83.64
2022-10-07T23:16:16.201Z,83.29
2022-10-07T23:18:45.132Z,83.54
2022-10-07T23:21:14.678Z,83.16
2022-10-07T23:23:43.815Z,82.51
2022-10-07T23:26:19.616Z,82.58
2022-10-07T23:28:48.615Z,82.79
2022-10-07T23:31:19.198Z,82.77
2022-10-07T23:33:49.383Z,83.54
2022-10-07T23:36:18.276Z,84.30
2022-10-07T23:38:46.511Z,83.94
2022-10-07T23:41:16.652Z,84.17
2022-10-07T23:43:44.509Z,84.49
2022-10-07T23:46:12.214Z,83.89
2022-10-07T23:48:43.069Z,84.58
2022-10-07T23:51:11.541Z,85.38
2022-10-07T23:53:39.283Z,85.02
2022-10-07T23:56:07.395Z,86.03
2022-10-07T23:58:36.056Z,85.55
